Time;durP1;ratioP1;P1;durP2;ratioP2;P2;SDS_P1;SDS_P2;PMS_P1;PMS_P2;Temp;Humidity;BMP_temperature;BMP_pressure;BME280_temperature;BME280_humidity;BME280_pressure;Samples;Min_cycle;Max_cycle;Signal;HPM_P1;HPM_P2
2021/01/16 00:00:55;;;;;;;32.42;18.67;;;;;;;-1.54;100.00;97115.09;5000845;28;20436;-53
2021/01/16 00:03:24;;;;;;;33.08;19.10;;;;;;;-1.44;100.00;97119.06;5000228;28;20440;-48
2021/01/16 00:05:53;;;;;;;32.95;20.02;;;;;;;-1.59;100.00;97117.00;4998542;28;20428;-53
2021/01/16 00:08:22;;;;;;;33.00;19.10;;;;;;;-1.51;100.00;97115.00;5004938;28;20448;-50
2021/01/16 00:10:50;;;;;;;32.03;19.20;;;;;;;-1.57;100.00;97122.97;5001384;28;20420;-49
2021/01/16 00:13:19;;;;;;;32.37;19.23;;;;;;;-1.57;100.00;97118.63;5002008;28;20797;-49
2021/01/16 00:15:46;;;;;;;33.08;19.48;;;;;;;-1.52;100.00;97124.47;5002819;28;20420;-52
2021/01/16 00:18:15;;;;;;;32.33;20.15;;;;;;;-1.53;100.00;97124.53;4997378;28;20432;-55
2021/01/16 00:20:46;;;;;;;31.47;18.73;;;;;;;-1.57;100.00;97123.81;5002107;28;21179;-55
2021/01/16 00:23:14;;;;;;;32.17;18.92;;;;;;;-1.57;100.00;97125.56;4999812;28;20824;-55
2021/01/16 00:25:42;;;;;;;33.42;20.58;;;;;;;-1.52;100.00;97133.97;4998212;28;20895;-50
2021/01/16 00:28:16;;;;;;;35.00;20.40;;;;;;;-1.53;100.00;97132.31;4995500;28;20777;-56
2021/01/16 00:30:43;;;;;;;33.50;19.92;;;;;;;-1.47;100.00;97135.50;5005592;28;20455;-56
2021/01/16 00:33:17;;;;;;;31.52;19.27;;;;;;;-1.38;100.00;97141.25;4998834;28;20416;-54
2021/01/16 00:35:46;;;;;;;31.60;19.07;;;;;;;-1.45;100.00;97136.28;4987758;28;20511;-52
2021/01/16 00:38:13;;;;;;;31.13;19.80;;;;;;;-1.38;100.00;97141.25;4990849;28;20420;-50
2021/01/16 00:40:41;;;;;;;33.53;19.85;;;;;;;-1.40;100.00;97137.88;5001356;28;20472;-52
2021/01/16 00:43:11;;;;;;;31.35;18.98;;;;;;;-1.45;100.00;97140.63;5019164;28;20421;-53
2021/01/16 00:45:40;;;;;;;31.83;19.00;;;;;;;-1.34;100.00;97143.69;5009651;28;20412;-54
2021/01/16 00:48:08;;;;;;;32.42;18.83;;;;;;;-1.55;100.00;97144.44;4998310;28;20413;-53
2021/01/16 00:50:35;;;;;;;33.10;19.83;;;;;;;-1.44;100.00;97139.75;5002280;28;20417;-51
2021/01/16 00:53:04;;;;;;;31.75;19.15;;;;;;;-1.45;100.00;97140.63;4999367;28;20948;-52
2021/01/16 00:55:37;;;;;;;30.65;19.08;;;;;;;-1.39;100.00;97143.00;5003460;28;20413;-51
2021/01/16 00:58:10;;;;;;;33.72;19.25;;;;;;;-1.38;100.00;97136.91;4999000;28;20467;-52
2021/01/16 01:00:39;;;;;;;29.83;17.83;;;;;;;-1.46;100.00;97137.19;5003772;28;20413;-49
2021/01/16 01:03:07;;;;;;;30.38;17.80;;;;;;;-1.47;100.00;97143.28;4981757;28;20414;-51
2021/01/16 01:05:34;;;;;;;29.27;18.85;;;;;;;-1.57;100.00;97141.91;4983755;28;20818;-56
2021/01/16 01:08:01;;;;;;;32.70;19.88;;;;;;;-1.35;100.00;97146.31;4986024;28;20427;-51
2021/01/16 01:10:31;;;;;;;33.53;19.65;;;;;;;-1.38;100.00;97147.25;4985050;28;20814;-52
2021/01/16 01:12:58;;;;;;;31.58;19.23;;;;;;;-1.36;100.00;97144.63;5002862;28;20412;-57
2021/01/16 01:15:25;;;;;;;32.83;19.98;;;;;;;-1.42;100.00;97150.03;5005931;28;20421;-53
2021/01/16 01:17:53;;;;;;;31.05;17.80;;;;;;;-1.51;100.00;97153.78;5008067;28;20423;-52
2021/01/16 01:20:21;;;;;;;31.67;19.17;;;;;;;-1.41;100.00;97157.75;5004190;28;20441;-56
2021/01/16 01:22:48;;;;;;;33.27;20.53;;;;;;;-1.40;100.00;97159.41;5002589;28;21191;-51
2021/01/16 01:25:15;;;;;;;33.33;20.33;;;;;;;-1.32;100.00;97159.16;5002322;28;20428;-55
2021/01/16 01:27:44;;;;;;;30.50;19.15;;;;;;;-1.32;100.00;97157.41;5001075;28;20423;-54
2021/01/16 01:30:12;;;;;;;31.42;18.95;;;;;;;-1.36;100.00;97157.56;4999691;28;20405;-54
2021/01/16 01:32:41;;;;;;;32.33;19.60;;;;;;;-1.33;100.00;97155.72;5000543;28;20430;-54
2021/01/16 01:35:09;;;;;;;31.80;19.23;;;;;;;-1.21;100.00;97164.78;4990461;28;21005;-53
2021/01/16 01:37:39;;;;;;;30.75;18.73;;;;;;;-1.29;100.00;97159.88;4985922;28;20446;-52
2021/01/16 01:40:08;;;;;;;29.65;18.80;;;;;;;-1.30;100.00;97159.94;4984575;28;21017;-54
2021/01/16 01:42:36;;;;;;;29.40;18.17;;;;;;;-1.37;100.00;97153.31;5003780;28;20931;-53
2021/01/16 01:45:05;;;;;;;29.60;16.75;;;;;;;-1.30;100.00;97155.63;5000512;28;20784;-52
2021/01/16 01:47:32;;;;;;;29.42;18.05;;;;;;;-1.23;100.00;97153.66;5004692;28;20479;-53
2021/01/16 01:49:59;;;;;;;30.00;18.27;;;;;;;-1.25;100.00;97150.25;4988613;28;20916;-52
2021/01/16 01:52:27;;;;;;;30.15;18.98;;;;;;;-1.18;100.00;97146.56;4986479;28;20421;-54
2021/01/16 01:54:54;;;;;;;29.67;18.00;;;;;;;-1.29;100.00;97152.13;5003996;28;20463;-54
2021/01/16 01:57:23;;;;;;;29.85;18.45;;;;;;;-1.17;98.69;97155.16;5013636;28;20417;-55
2021/01/16 01:59:51;;;;;;;29.40;18.17;;;;;;;-1.23;99.81;97151.06;4977639;28;20846;-51
2021/01/16 02:02:20;;;;;;;29.23;17.20;;;;;;;-1.26;99.60;97153.75;4984605;28;20425;-52
2021/01/16 02:04:50;;;;;;;30.38;18.00;;;;;;;-1.35;99.46;97151.50;4995177;28;20444;-54
2021/01/16 02:07:28;;;;;;;29.83;17.83;;;;;;;-1.33;99.31;97147.13;4985258;28;20417;-56
2021/01/16 02:09:56;;;;;;;32.67;19.50;;;;;;;-1.23;99.55;97151.91;5008941;28;20428;-54
2021/01/16 02:12:23;;;;;;;29.77;18.13;;;;;;;-1.21;99.38;97150.09;5012827;28;20419;-54
2021/01/16 02:14:58;;;;;;;33.65;19.35;;;;;;;-1.30;99.89;97150.44;5001958;28;20421;-52
2021/01/16 02:17:27;;;;;;;30.65;18.67;;;;;;;-1.29;99.03;97146.09;5002290;28;20417;-55
2021/01/16 02:20:07;;;;;;;31.95;18.48;;;;;;;-1.30;99.54;97141.84;5005317;28;20515;-54
2021/01/16 02:22:43;;;;;;;32.95;19.05;;;;;;;-1.29;99.37;97146.09;5000525;28;20412;-54
2021/01/16 02:25:12;;;;;;;32.65;19.38;;;;;;;-1.19;99.12;97150.03;4997173;28;20444;-52
2021/01/16 02:27:51;;;;;;;35.90;20.23;;;;;;;-1.29;99.91;97140.94;5001170;28;20883;-52
2021/01/16 02:30:18;;;;;;;34.97;20.23;;;;;;;-1.32;99.91;97147.03;4995867;28;20413;-51
2021/01/16 02:32:46;;;;;;;32.55;20.45;;;;;;;-1.27;99.86;97142.56;5001333;28;20909;-56
2021/01/16 02:35:15;;;;;;;32.00;18.58;;;;;;;-1.32;99.27;97141.03;4998605;28;20843;-52
2021/01/16 02:38:03;;;;;;;32.47;18.90;;;;;;;-1.31;99.28;97146.16;4999202;28;20427;-52
2021/01/16 02:40:32;;;;;;;33.13;20.70;;;;;;;-1.29;99.93;97151.28;5003463;28;20413;-55
2021/01/16 02:43:05;;;;;;;34.77;21.03;;;;;;;-1.25;99.32;97147.69;4999903;28;20431;-52
2021/01/16 02:45:34;;;;;;;34.90;20.63;;;;;;;-1.26;100.00;97149.41;5000081;28;20499;-52
2021/01/16 02:48:12;;;;;;;34.15;19.13;;;;;;;-1.29;99.65;97148.69;5002623;28;20424;-55
2021/01/16 02:50:42;;;;;;;33.67;19.80;;;;;;;-1.31;99.93;97151.34;4999232;28;20445;-57
2021/01/16 02:53:11;;;;;;;33.58;20.52;;;;;;;-1.19;98.65;97150.03;4990776;28;20908;-53
2021/01/16 02:55:39;;;;;;;33.67;20.17;;;;;;;-1.17;99.41;97149.97;5004206;28;20412;-51
2021/01/16 02:58:07;;;;;;;35.85;20.77;;;;;;;-1.25;100.00;97147.69;5003003;28;20448;-52
2021/01/16 03:00:34;;;;;;;35.47;21.23;;;;;;;-1.32;99.64;97143.63;5003111;28;20511;-53
2021/01/16 03:03:01;;;;;;;38.00;21.27;;;;;;;-0.58;89.50;97147.75;4996632;28;20424;-53
2021/01/16 03:05:29;;;;;;;36.63;21.17;;;;;;;-1.27;98.61;97146.91;4998029;28;20791;-52
2021/01/16 03:07:56;;;;;;;37.08;21.08;;;;;;;-1.43;100.00;97146.59;4997644;28;21058;-51
2021/01/16 03:10:25;;;;;;;36.22;21.13;;;;;;;-1.45;100.00;97151.81;5003637;28;20415;-56
2021/01/16 03:12:53;;;;;;;38.92;21.00;;;;;;;-1.48;100.00;97151.94;5004811;28;20563;-56
2021/01/16 03:15:21;;;;;;;36.10;19.00;;;;;;;-1.51;100.00;97151.22;5000025;28;20432;-51
2021/01/16 03:17:50;;;;;;;36.83;20.50;;;;;;;-1.52;100.00;97147.75;5000767;28;20444;-53
2021/01/16 03:20:21;;;;;;;37.17;20.13;;;;;;;-1.43;100.00;97151.75;5001566;28;20434;-53
2021/01/16 03:22:50;;;;;;;35.38;19.85;;;;;;;-1.48;100.00;97148.47;5000558;28;20421;-55
2021/01/16 03:25:19;;;;;;;34.92;19.77;;;;;;;-1.53;100.00;97153.81;5001644;28;20416;-48
2021/01/16 03:27:46;;;;;;;33.88;19.08;;;;;;;-1.55;100.00;97154.78;5000460;28;20545;-53
2021/01/16 03:30:13;;;;;;;34.42;19.75;;;;;;;-1.51;100.00;97146.03;4998294;28;20967;-52
2021/01/16 03:32:42;;;;;;;36.40;20.43;;;;;;;-1.58;100.00;97152.28;5003338;28;20471;-55
2021/01/16 03:35:10;;;;;;;37.10;20.60;;;;;;;-1.57;100.00;97147.09;4999345;28;20417;-52
2021/01/16 03:37:37;;;;;;;38.72;19.67;;;;;;;-1.48;100.00;97141.59;5001798;28;20506;-52
2021/01/16 03:40:06;;;;;;;36.60;21.48;;;;;;;-1.44;100.00;97143.16;5000475;28;20429;-52
2021/01/16 03:42:34;;;;;;;35.72;20.00;;;;;;;-1.58;100.00;97149.69;5005319;28;20428;-53
2021/01/16 03:45:01;;;;;;;35.58;20.83;;;;;;;-1.56;100.00;97147.91;4997008;28;20446;-53
2021/01/16 03:47:28;;;;;;;38.13;21.10;;;;;;;-1.64;100.00;97150.78;5001711;28;21005;-51
2021/01/16 03:49:56;;;;;;;35.40;20.05;;;;;;;-1.61;100.00;97148.09;4999845;28;20463;-53
2021/01/16 03:52:28;;;;;;;39.05;21.50;;;;;;;-1.69;100.00;97150.06;5002276;28;20413;-54
2021/01/16 03:54:55;;;;;;;41.38;22.58;;;;;;;-1.74;100.00;97144.25;4997164;28;20538;-52
2021/01/16 03:57:22;;;;;;;40.92;23.05;;;;;;;-1.73;100.00;97146.75;5005453;28;21008;-52
2021/01/16 03:59:49;;;;;;;39.63;21.92;;;;;;;-1.71;100.00;97138.97;4997387;28;20421;-49
2021/01/16 04:02:18;;;;;;;40.47;21.80;;;;;;;-1.74;100.00;97145.06;5009578;28;20424;-53
2021/01/16 04:04:46;;;;;;;41.47;23.42;;;;;;;-1.77;100.00;97142.59;4979860;28;20505;-53
2021/01/16 04:07:14;;;;;;;42.22;22.35;;;;;;;-1.73;100.00;97140.75;4976362;28;20419;-50
2021/01/16 04:09:43;;;;;;;43.00;22.00;;;;;;;-1.65;100.00;97137.88;4982706;28;20455;-54
2021/01/16 04:12:10;;;;;;;40.88;21.70;;;;;;;-1.83;100.00;97147.13;5000300;28;20421;-51
2021/01/16 04:14:37;;;;;;;42.35;22.27;;;;;;;-1.93;100.00;97144.88;5004243;28;20428;-53
2021/01/16 04:17:05;;;;;;;44.45;23.17;;;;;;;-1.92;100.00;97149.13;5014741;28;20416;-51
2021/01/16 04:19:32;;;;;;;43.25;22.80;;;;;;;-1.94;100.00;97150.91;5000003;28;21070;-49
2021/01/16 04:21:59;;;;;;;47.38;24.55;;;;;;;-2.00;100.00;97151.09;4990977;28;20905;-52
2021/01/16 04:24:27;;;;;;;44.55;24.42;;;;;;;-1.98;100.00;97151.06;4995962;28;20425;-53
2021/01/16 04:26:55;;;;;;;46.30;24.00;;;;;;;-1.96;100.00;97152.72;5014557;28;20433;-51
2021/01/16 04:29:22;;;;;;;41.13;22.02;;;;;;;-2.03;100.00;97150.38;5010078;28;20415;-50
2021/01/16 04:31:49;;;;;;;41.43;21.90;;;;;;;-2.01;100.00;97146.00;5011387;28;20486;-51
2021/01/16 04:34:16;;;;;;;39.88;22.55;;;;;;;-1.99;100.00;97154.56;5005368;28;20927;-53
2021/01/16 04:36:44;;;;;;;43.70;23.53;;;;;;;-1.98;100.00;97153.66;5004366;28;20463;-51
2021/01/16 04:39:11;;;;;;;44.23;22.73;;;;;;;-1.94;100.00;97153.50;5002049;28;20421;-54
2021/01/16 04:41:39;;;;;;;40.60;22.15;;;;;;;-1.97;100.00;97152.75;5004551;28;20452;-52
2021/01/16 04:44:06;;;;;;;41.85;23.27;;;;;;;-1.95;100.00;97150.97;5007369;28;20491;-51
2021/01/16 04:46:33;;;;;;;42.63;22.92;;;;;;;-2.00;100.00;97151.09;5005917;28;20433;-51
2021/01/16 04:49:03;;;;;;;41.70;22.73;;;;;;;-1.95;100.00;97153.56;5002304;28;20416;-52
2021/01/16 04:51:31;;;;;;;42.35;22.98;;;;;;;-1.94;100.00;97153.50;5001845;28;20416;-50
2021/01/16 04:54:00;;;;;;;42.75;22.15;;;;;;;-2.05;100.00;97152.19;5006330;28;20511;-50
2021/01/16 04:56:29;;;;;;;43.63;23.52;;;;;;;-1.95;100.00;97151.81;4999940;28;20457;-52
2021/01/16 04:58:57;;;;;;;42.72;24.08;;;;;;;-1.87;100.00;97148.97;5004595;28;20850;-50
2021/01/16 05:01:26;;;;;;;44.17;23.42;;;;;;;-1.87;100.00;97151.56;4994376;28;20422;-53
2021/01/16 05:03:55;;;;;;;43.15;23.08;;;;;;;-1.88;100.00;97147.28;5002361;28;20785;-51
2021/01/16 05:06:24;;;;;;;42.85;23.48;;;;;;;-1.79;100.00;97153.88;5004716;28;20492;-49
2021/01/16 05:08:53;;;;;;;41.70;22.23;;;;;;;-1.95;100.00;97154.41;5002079;28;20489;-53
2021/01/16 05:11:34;;;;;;;41.63;22.73;;;;;;;-1.98;100.00;97162.25;4999500;28;20409;-52
2021/01/16 05:14:11;;;;;;;41.38;22.77;;;;;;;-1.94;100.00;97150.06;5004776;28;20455;-50
2021/01/16 05:16:53;;;;;;;44.00;23.65;;;;;;;-1.98;100.00;97146.75;4997285;28;20838;-53
2021/01/16 05:19:22;;;;;;;42.55;22.98;;;;;;;-1.98;100.00;97151.06;5001264;28;20409;-53
2021/01/16 05:21:49;;;;;;;41.63;22.23;;;;;;;-2.07;100.00;97147.03;5001326;28;20425;-54
2021/01/16 05:24:16;;;;;;;43.75;23.38;;;;;;;-1.98;100.00;97156.25;5005681;28;20500;-53
2021/01/16 05:26:59;;;;;;;41.28;22.05;;;;;;;-2.02;100.00;97152.09;5001250;28;20414;-48
2021/01/16 05:29:28;;;;;;;39.67;21.45;;;;;;;-1.99;100.00;97162.31;5004657;28;20459;-53
2021/01/16 05:31:56;;;;;;;41.77;22.77;;;;;;;-1.91;100.00;97157.72;4997103;28;20427;-53
2021/01/16 05:34:24;;;;;;;39.88;22.58;;;;;;;-1.96;100.00;97154.47;5001624;28;20436;-52
2021/01/16 05:36:52;;;;;;;37.25;20.42;;;;;;;-1.91;100.00;97149.97;5005587;28;20492;-56
2021/01/16 05:39:20;;;;;;;38.78;20.98;;;;;;;-1.86;100.00;97158.41;4996481;28;20417;-50
2021/01/16 05:41:47;;;;;;;41.45;21.75;;;;;;;-1.87;100.00;97158.47;5000972;28;20831;-54
2021/01/16 05:44:14;;;;;;;38.47;20.77;;;;;;;-1.92;100.00;97159.47;5000027;28;20424;-50
2021/01/16 05:46:44;;;;;;;40.50;21.45;;;;;;;-2.00;100.00;97158.03;5007115;28;20421;-54
2021/01/16 05:49:18;;;;;;;39.58;21.85;;;;;;;-2.03;100.00;97163.28;4996391;28;20430;-54
2021/01/16 05:51:45;;;;;;;38.28;20.48;;;;;;;-2.11;100.00;97162.72;5003577;28;20514;-53
2021/01/16 05:54:13;;;;;;;38.97;21.85;;;;;;;-2.00;100.00;97153.69;5003134;28;20429;-54
2021/01/16 05:56:40;;;;;;;35.17;18.50;;;;;;;-2.05;100.00;97154.75;5000521;28;20418;-53
2021/01/16 05:59:11;;;;;;;40.10;21.30;;;;;;;-2.00;100.00;97153.69;5003624;28;20435;-50
2021/01/16 06:01:39;;;;;;;38.75;21.35;;;;;;;-2.00;100.00;97161.44;4998881;28;20464;-51
2021/01/16 06:04:07;;;;;;;40.08;21.80;;;;;;;-2.07;100.00;97159.97;4997618;28;20985;-52
2021/01/16 06:06:35;;;;;;;33.55;18.40;;;;;;;-2.08;100.00;97154.84;4995516;28;20432;-54
2021/01/16 06:09:03;;;;;;;39.10;21.02;;;;;;;-2.13;100.00;97155.03;4983563;28;20434;-50
2021/01/16 06:11:37;;;;;;;39.53;20.88;;;;;;;-2.06;100.00;97158.25;5003970;28;20475;-56
2021/01/16 06:14:06;;;;;;;28.05;13.88;;;;;;;-2.08;100.00;97154.84;5001044;28;20069;-54
2021/01/16 06:16:49;;;;;;;22.73;11.68;;;;;;;-2.13;100.00;97155.03;5008003;28;20073;-52
2021/01/16 06:19:21;;;;;;;24.75;11.95;;;;;;;-2.15;100.00;97159.38;5011948;28;20627;-48
2021/01/16 06:21:49;;;;;;;25.80;11.43;;;;;;;-2.12;100.00;97159.28;5014378;28;20041;-53
2021/01/16 06:24:19;;;;;;;25.40;12.18;;;;;;;-2.14;100.00;97163.66;5014980;28;20128;-54
2021/01/16 06:26:54;;;;;;;23.25;10.82;;;;;;;-2.25;100.00;97155.41;5013047;28;20060;-57
2021/01/16 06:29:26;;;;;;;14.65;7.35;;;;;;;-2.29;100.00;97153.81;5011684;28;20147;-54
2021/01/16 06:32:02;;;;;;;20.55;9.18;;;;;;;-2.22;100.00;97150.97;5009719;28;20108;-57
2021/01/16 06:34:32;;;;;;;20.05;9.25;;;;;;;-2.15;100.00;97156.78;5009914;28;20092;-54
2021/01/16 06:37:09;;;;;;;23.23;8.57;;;;;;;-2.14;100.00;97153.31;5004961;28;20137;-55
2021/01/16 06:39:38;;;;;;;20.17;8.63;;;;;;;-2.21;100.00;97157.00;5001340;28;20053;-58
2021/01/16 06:42:08;;;;;;;20.65;9.10;;;;;;;-2.17;100.00;97154.28;5000349;28;20516;-58
2021/01/16 06:44:35;;;;;;;19.02;8.95;;;;;;;-2.11;100.00;97163.53;4984495;28;20100;-55
2021/01/16 06:47:03;;;;;;;24.23;11.63;;;;;;;-2.08;100.00;97150.53;4984583;28;20054;-55
2021/01/16 06:49:32;;;;;;;21.42;9.07;;;;;;;-2.09;100.00;97153.19;4988348;28;20076;-52
2021/01/16 06:52:00;;;;;;;22.75;10.68;;;;;;;-2.15;100.00;97149.88;4999176;28;20129;-52
2021/01/16 06:54:29;;;;;;;17.38;8.05;;;;;;;-2.13;100.00;97149.84;5007221;28;20092;-49
2021/01/16 06:57:02;;;;;;;19.02;9.18;;;;;;;-2.15;100.00;97146.47;4999741;28;20133;-53
2021/01/16 06:59:29;;;;;;;21.77;11.63;;;;;;;-2.20;100.00;97146.63;5002440;28;20041;-54
2021/01/16 07:01:56;;;;;;;18.80;9.27;;;;;;;-2.18;99.72;97147.41;4999502;28;20123;-52
2021/01/16 07:04:24;;;;;;;15.52;6.97;;;;;;;-2.12;98.40;97143.78;5000248;28;20666;-52
2021/01/16 07:06:52;;;;;;;18.17;8.85;;;;;;;-2.13;97.61;97146.41;5000421;28;20125;-54
2021/01/16 07:09:21;;;;;;;18.33;8.32;;;;;;;-2.09;96.36;97148.84;5003980;28;20053;-56
2021/01/16 07:11:50;;;;;;;17.63;8.45;;;;;;;-2.12;96.73;97146.38;4998544;28;20072;-52
2021/01/16 07:14:18;;;;;;;20.80;8.82;;;;;;;-2.13;97.42;97152.44;4978587;28;20043;-52
2021/01/16 07:16:46;;;;;;;23.80;11.50;;;;;;;-2.06;97.80;97153.91;4981099;28;20038;-50
2021/01/16 07:19:19;;;;;;;14.48;7.65;;;;;;;-2.17;98.25;97154.28;4995631;28;20038;-51
2021/01/16 07:21:47;;;;;;;16.05;7.20;;;;;;;-2.18;97.57;97162.06;5000674;28;20472;-51
2021/01/16 07:24:16;;;;;;;15.38;7.50;;;;;;;-2.09;97.28;97161.78;5003271;28;20100;-52
2021/01/16 07:26:46;;;;;;;18.83;7.60;;;;;;;-2.12;98.45;97167.03;5003011;28;20104;-54
2021/01/16 07:29:14;;;;;;;14.68;6.57;;;;;;;-2.10;98.89;97164.38;4975722;28;20285;-53
2021/01/16 07:31:43;;;;;;;21.38;9.40;;;;;;;-2.03;99.15;97160.72;4984384;28;20058;-51
2021/01/16 07:34:10;;;;;;;16.45;6.75;;;;;;;-2.16;99.26;97168.88;4987156;28;20042;-52
2021/01/16 07:36:38;;;;;;;14.25;7.50;;;;;;;-2.15;100.00;97165.38;4997905;28;20117;-52
2021/01/16 07:39:07;;;;;;;20.20;7.20;;;;;;;-2.08;99.29;97171.19;5002487;28;20050;-49
2021/01/16 07:41:37;;;;;;;18.27;9.48;;;;;;;-2.09;98.95;97171.28;5008457;28;20042;-50
2021/01/16 07:44:09;;;;;;;16.20;8.20;;;;;;;-2.11;99.65;97176.47;4989791;28;20077;-54
2021/01/16 07:46:39;;;;;;;20.60;8.50;;;;;;;-2.09;100.00;97173.84;5001731;28;20105;-49
2021/01/16 07:49:07;;;;;;;26.30;11.85;;;;;;;-2.00;99.84;97181.28;5004109;28;20502;-54
2021/01/16 07:51:36;;;;;;;28.52;13.32;;;;;;;-2.02;99.78;97183.09;5001347;28;20117;-53
2021/01/16 07:54:10;;;;;;;14.52;6.72;;;;;;;-2.00;100.00;97178.69;5004016;28;20050;-53
2021/01/16 07:56:40;;;;;;;19.65;9.07;;;;;;;-1.94;99.79;97179.34;5006378;28;20061;-50
2021/01/16 07:59:18;;;;;;;23.67;11.10;;;;;;;-1.93;99.27;97175.88;4984769;28;20045;-57
2021/01/16 08:02:09;;;;;;;23.40;11.38;;;;;;;-1.93;98.77;97181.06;5006138;28;20295;-56
2021/01/16 08:04:38;;;;;;;23.27;11.77;;;;;;;-1.94;99.26;97178.50;5007470;28;20042;-54
2021/01/16 08:07:06;;;;;;;23.70;12.73;;;;;;;-1.84;99.60;97169.56;5004601;28;20096;-53
2021/01/16 08:09:57;;;;;;;20.10;9.68;;;;;;;-1.84;99.66;97179.88;5001311;28;20121;-50
2021/01/16 08:12:26;;;;;;;18.20;9.43;;;;;;;-1.83;98.25;97172.97;4999545;28;20046;-54
2021/01/16 08:14:54;;;;;;;23.40;9.95;;;;;;;-1.79;98.49;97170.25;5002756;28;20104;-51
2021/01/16 08:17:24;;;;;;;26.30;12.45;;;;;;;-1.64;97.94;97173.22;5008452;28;20050;-52
2021/01/16 08:20:07;;;;;;;19.10;10.55;;;;;;;-1.63;96.81;97167.97;4998595;28;20600;-54
2021/01/16 08:22:38;;;;;;;18.95;9.45;;;;;;;-1.63;96.51;97167.97;5003666;28;20044;-51
2021/01/16 08:25:07;;;;;;;18.13;10.00;;;;;;;-1.73;96.69;97164.00;5007084;28;20049;-53
2021/01/16 08:27:36;;;;;;;21.13;8.02;;;;;;;-1.58;95.88;97171.25;5010137;28;20038;-52
2021/01/16 08:30:07;;;;;;;22.35;11.15;;;;;;;-1.56;95.55;97166.88;5001150;28;20049;-55
2021/01/16 08:32:55;;;;;;;20.27;10.13;;;;;;;-1.35;94.90;97167.84;5006651;28;20455;-56
2021/01/16 08:35:24;;;;;;;24.20;12.20;;;;;;;-1.37;93.02;97172.25;4997473;28;20073;-51
2021/01/16 08:37:51;;;;;;;31.73;18.08;;;;;;;-1.15;92.45;97158.53;5002014;28;20445;-56
2021/01/16 08:40:33;;;;;;;25.75;16.13;;;;;;;-1.24;90.88;97165.75;5003725;28;20423;-52
2021/01/16 08:43:01;;;;;;;28.65;18.00;;;;;;;-1.04;90.20;97167.59;5000186;28;20427;-48
2021/01/16 08:45:28;;;;;;;29.65;17.95;;;;;;;-1.03;89.77;97163.28;5003929;28;20401;-49
2021/01/16 08:47:58;;;;;;;27.80;17.60;;;;;;;-0.87;88.70;97158.38;5006684;28;20408;-51
2021/01/16 08:50:29;;;;;;;28.33;16.92;;;;;;;-0.77;87.21;97164.88;5005493;28;20417;-55
2021/01/16 08:52:56;;;;;;;26.75;16.65;;;;;;;-0.71;86.41;97164.66;4985812;28;20427;-48
2021/01/16 08:55:27;;;;;;;26.70;16.83;;;;;;;-0.59;85.59;97163.34;4992149;28;20424;-54
2021/01/16 08:58:07;;;;;;;23.60;15.95;;;;;;;-0.70;84.92;97163.75;5006292;28;21158;-53
2021/01/16 09:00:35;;;;;;;23.63;15.05;;;;;;;-0.71;84.72;97164.66;4995285;28;20495;-55
2021/01/16 09:03:12;;;;;;;23.85;16.05;;;;;;;-0.65;84.99;97172.19;5005734;28;20422;-50
2021/01/16 09:05:40;;;;;;;26.58;16.10;;;;;;;-0.33;82.77;97176.13;5005847;28;20440;-55
2021/01/16 09:08:18;;;;;;;22.85;13.57;;;;;;;-0.65;83.78;97163.59;4984511;28;20415;-51
2021/01/16 09:10:46;;;;;;;23.60;14.80;;;;;;;-0.46;83.28;97171.47;4982525;28;20411;-55
2021/01/16 09:13:27;;;;;;;21.52;12.80;;;;;;;-0.60;82.21;97177.19;4987443;28;20916;-52
2021/01/16 09:15:56;;;;;;;23.17;14.48;;;;;;;-0.51;82.05;97179.44;4979531;28;20526;-51
2021/01/16 09:18:25;;;;;;;23.45;13.60;;;;;;;-0.53;81.98;97182.06;4987722;28;20466;-49
2021/01/16 09:20:58;;;;;;;23.10;15.00;;;;;;;-0.37;81.66;97178.91;5004608;28;20875;-52
2021/01/16 09:23:29;;;;;;;21.00;13.77;;;;;;;-0.53;80.67;97178.66;4998434;28;20419;-53
2021/01/16 09:25:59;;;;;;;20.90;13.20;;;;;;;-0.50;79.73;97179.38;4984614;28;20915;-56
2021/01/16 09:28:48;;;;;;;20.77;12.43;;;;;;;-0.37;79.76;97178.91;4991952;28;20418;-52
2021/01/16 09:31:17;;;;;;;21.80;14.13;;;;;;;-0.31;79.88;97189.00;4998196;28;20417;-52
2021/01/16 09:33:45;;;;;;;20.33;12.60;;;;;;;-0.37;79.90;97186.69;5003145;28;20413;-52
2021/01/16 09:36:12;;;;;;;21.63;13.20;;;;;;;-0.41;79.04;97177.31;5007068;28;20451;-51
2021/01/16 09:38:39;;;;;;;20.43;11.87;;;;;;;-0.53;79.07;97184.66;5006150;28;20424;-50
2021/01/16 09:41:07;;;;;;;20.20;12.83;;;;;;;-0.73;79.11;97180.22;5003112;28;20505;-51
2021/01/16 09:43:42;;;;;;;19.15;12.35;;;;;;;-0.68;79.28;97176.66;4991014;28;20413;-53
2021/01/16 09:46:10;;;;;;;19.92;12.48;;;;;;;-0.49;79.18;97175.03;4994973;28;20420;-50
2021/01/16 09:48:40;;;;;;;17.40;10.13;;;;;;;-0.55;78.07;97178.72;4998677;28;20409;-53
2021/01/16 09:51:08;;;;;;;19.75;12.50;;;;;;;-0.39;78.04;97171.19;5003071;28;20432;-54
2021/01/16 09:53:36;;;;;;;20.10;12.48;;;;;;;-0.20;77.93;97162.69;4997284;28;20484;-55
2021/01/16 09:56:04;;;;;;;18.85;11.88;;;;;;;-0.17;76.74;97172.91;5001905;28;20449;-54
2021/01/16 09:58:32;;;;;;;20.92;13.57;;;;;;;-0.06;77.85;97169.00;4992770;28;20414;-49
2021/01/16 10:01:17;;;;;;;21.40;13.00;;;;;;;-0.04;76.46;97158.56;4984524;28;20490;-55
2021/01/16 10:03:46;;;;;;;19.70;11.30;;;;;;;-0.14;76.79;97155.50;4979865;28;20473;-53
2021/01/16 10:06:17;;;;;;;22.13;12.70;;;;;;;-0.22;78.20;97154.13;5006797;28;20409;-56
2021/01/16 10:08:44;;;;;;;22.13;13.02;;;;;;;-0.14;77.35;97149.47;4999799;28;20493;-57
2021/01/16 10:11:12;;;;;;;21.90;14.75;;;;;;;0.10;77.48;97147.63;5003128;28;20417;-54
2021/01/16 10:13:40;;;;;;;20.75;13.43;;;;;;;-0.06;76.52;97150.84;5003517;28;20792;-52
2021/01/16 10:16:09;;;;;;;21.52;13.25;;;;;;;0.04;76.56;97134.94;4996755;28;20421;-49
2021/01/16 10:18:40;;;;;;;19.88;11.80;;;;;;;-0.12;76.27;97127.75;4997179;28;20419;-48
2021/01/16 10:21:08;;;;;;;23.52;14.35;;;;;;;0.15;76.56;97130.97;5005602;28;20412;-53
2021/01/16 10:23:37;;;;;;;20.88;13.02;;;;;;;-0.06;77.21;97126.69;5005735;28;20428;-52
2021/01/16 10:26:08;;;;;;;18.08;10.77;;;;;;;-0.10;76.61;97127.72;4998352;28;20424;-50
2021/01/16 10:28:38;;;;;;;21.20;13.13;;;;;;;-0.18;77.79;97115.06;5001852;28;20811;-52
2021/01/16 10:31:06;;;;;;;24.00;14.27;;;;;;;0.01;77.28;97116.91;4999524;28;20409;-57
2021/01/16 10:33:42;;;;;;;22.67;13.30;;;;;;;-0.10;76.70;97112.16;4994129;28;20454;-50
2021/01/16 10:36:12;;;;;;;19.10;10.55;;;;;;;-0.11;75.85;97106.13;4983090;28;20457;-50
2021/01/16 10:38:42;;;;;;;18.23;10.27;;;;;;;-0.26;77.06;97106.75;4999716;28;20471;-49
2021/01/16 10:41:09;;;;;;;22.00;12.60;;;;;;;-0.15;77.03;97109.75;4998237;28;20448;-51
2021/01/16 10:43:37;;;;;;;17.25;10.40;;;;;;;-0.22;77.59;97102.28;5005440;28;20409;-54
2021/01/16 10:46:07;;;;;;;20.38;12.30;;;;;;;-0.04;75.63;97091.16;5001819;28;20421;-50
2021/01/16 10:48:37;;;;;;;19.35;12.25;;;;;;;-0.10;75.66;97092.28;4998207;28;20784;-54
2021/01/16 10:51:07;;;;;;;25.08;15.48;;;;;;;0.15;76.14;97099.84;5000519;28;20443;-54
2021/01/16 10:53:35;;;;;;;28.25;12.85;;;;;;;-0.03;77.29;97093.69;5003297;28;20477;-52
2021/01/16 10:56:08;;;;;;;24.80;15.40;;;;;;;0.16;76.23;97085.97;4996643;28;20442;-52
2021/01/16 10:58:37;;;;;;;18.03;10.53;;;;;;;-0.14;76.72;97090.69;5004378;28;20471;-50
2021/01/16 11:01:04;;;;;;;23.27;13.95;;;;;;;-0.11;77.17;97087.13;4994910;28;20507;-52
2021/01/16 11:03:32;;;;;;;24.55;14.75;;;;;;;0.15;76.67;97084.28;5003506;28;20408;-50
2021/01/16 11:06:04;;;;;;;23.17;14.03;;;;;;;-0.09;76.32;97077.56;5003855;28;20564;-49
2021/01/16 11:08:34;;;;;;;19.90;10.65;;;;;;;-0.08;76.27;97069.69;4999006;28;20857;-52
2021/01/16 11:11:22;;;;;;;18.60;11.55;;;;;;;-0.27;77.16;97079.16;4995443;28;20424;-53
2021/01/16 11:13:50;;;;;;;20.00;11.38;;;;;;;-0.07;77.15;97067.94;5003275;28;20417;-50
2021/01/16 11:16:19;;;;;;;25.13;15.63;;;;;;;-0.19;77.07;97071.06;5000561;28;20508;-48
2021/01/16 11:18:47;;;;;;;25.60;14.80;;;;;;;0.12;76.66;97062.84;4997309;28;20414;-52
2021/01/16 11:21:41;;;;;;;25.63;15.10;;;;;;;0.12;76.28;97055.06;4999883;28;20451;-54
2021/01/16 11:24:49;;;;;;;24.23;14.15;;;;;;;-0.14;78.06;97058.75;4998219;28;20480;-50
2021/01/16 11:27:17;;;;;;;21.52;13.95;;;;;;;-0.29;76.70;97055.06;4998777;28;20842;-53